KAMA/AMA METAR and TAF weather

Enter ICAO airport designator
Station Type Date Time Source
KAMA METAR 2018/07/20 13:53 UTC NOAA

KAMA 201353Z 23016KT 10SM CLR 29/09 A3004 RMK AO2 SLP105 T02890089


Station Type Date Time Source
KAMA Decoded METAR 2018/07/20 13:53 UTC NOAA

AMARILLO INTERNATIONAL AIRPORT, TX, United States (KAMA) 35-13N 101-43W 1093M
Jul 20, 2018 - 09:53 AM EDT / 2018.07.20 1353 UTC
Wind: from the SW (230 degrees) at 18 MPH (16 KT):0
Visibility: 10 mile(s):0
Sky conditions: clear
Temperature: 84.0 F (28.9 C)
Dew Point: 48.0 F (8.9 C)
Relative Humidity: 28%
Pressure (altimeter): 30.04 in. Hg (1017 hPa)
ob: KAMA 201353Z 23016KT 10SM CLR 29/09 A3004 RMK AO2 SLP105 T02890089
cycle: 14

Station Type Date Time Source
KAMA TAF 2018/07/20 12:22 UTC NOAA

TAF KAMA 201120Z 2012/2112 21010KT P6SM BKN250
FM201400 21016G23KT P6SM FEW100 SCT250
FM210200 21013KT P6SM FEW250


Example: see airport list